Latest Weather Observations for Witchcliffe

IDW60801

Issued at 11:32 pm WST Friday 19 December 2014 (issued every 30 minutes, with the page automatically refreshed every 10 minutes)

About weather observations | Map of weather stations | Latest weather observations for WA | Other Formats
Station Details ID: 009746 Name: WITCHCLIFFE Lat: -34.03 Lon: 115.10 Height: 80.0 m
Data from the previous 72 hours. | See also: Recent months at Witchcliffe
Date/Time
WST
Temp
°C
App
Temp
°C
Dew
Point
Rel
Hum
%
Delta-T
°C
Wind Press
QNH
hPa
Press
MSL
hPa
Rain
since 9 am
mm
Dir
 
Spd
km/h
Gust
km/h
Spd
kts
Gust
kts
19/11:30pm 17.5 15.2 16.7 95 0.5 SSE 24 35 13 19 1012.3 1012.1 0.0
19/11:00pm 17.5 15.5 16.5 94 0.6 SSE 22 33 12 18 1012.5 1012.3 0.0
19/10:30pm 17.4 15.3 16.3 93 0.7 SSE 22 30 12 16 1012.6 1012.4 0.0
19/10:00pm 17.4 14.8 15.9 91 0.9 SSE 24 35 13 19 1012.7 1012.5 0.0
19/09:30pm 17.5 14.1 15.7 89 1.1 SE 28 39 15 21 1012.7 1012.5 0.0
19/09:00pm 17.8 14.4 15.8 88 1.2 SSE 28 44 15 24 1012.4 1012.2 0.0
19/08:30pm 17.9 14.5 15.7 87 1.3 SSE 28 44 15 24 1012.5 1012.3 0.0
19/08:00pm 17.7 14.1 15.3 86 1.4 SSE 28 39 15 21 1012.2 1012.0 0.0
19/07:30pm 17.9 14.6 15.0 83 1.7 SSE 26 35 14 19 1012.2 1012.0 0.0
19/07:05pm 18.2 14.1 14.9 81 1.9 SSE 30 50 16 27 1012.2 1012.0 0.0
19/07:00pm 18.4 14.7 15.1 81 1.9 SSE 28 37 15 20 1012.3 1012.1 0.0
19/06:30pm 18.9 14.3 15.0 78 2.3 SSE 33 44 18 24 1012.0 1011.8 0.0
19/06:00pm 19.6 14.9 14.4 72 3.0 SSE 32 46 17 25 1012.2 1012.0 0.0
19/05:30pm 20.8 16.0 14.7 68 3.6 SSE 33 46 18 25 1012.2 1012.0 0.0
19/05:00pm 21.7 17.7 15.1 66 3.9 SSE 30 39 16 21 1012.2 1012.0 0.0
19/04:30pm 22.5 18.5 15.1 63 4.4 SSE 30 39 16 21 1012.2 1012.0 0.0
19/04:00pm 22.8 18.2 14.6 60 4.9 SSE 32 43 17 23 1012.6 1012.4 0.0
19/03:46pm 23.6 19.7 14.3 56 5.5 SE 28 46 15 25 1012.5 1012.3 0.0
19/03:30pm 24.1 21.1 14.8 56 5.6 SE 24 35 13 19 1012.7 1012.5 0.0
19/03:00pm 25.9 22.9 14.7 50 6.7 SSE 24 33 13 18 1012.7 1012.5 0.0
19/02:30pm 27.3 24.0 14.0 44 7.9 SSE 24 33 13 18 1012.7 1012.5 0.0
19/02:00pm 27.1 24.0 13.4 42 8.1 SSE 22 30 12 16 1013.0 1012.8 0.0
19/01:30pm 27.5 24.7 13.1 41 8.5 SSE 20 28 11 15 1013.4 1013.2 0.0
19/01:00pm 28.7 26.1 13.8 40 8.9 SSE 20 28 11 15 1013.6 1013.4 0.0
19/12:30pm 28.0 25.2 13.1 39 8.8 SSE 20 30 11 16 1013.9 1013.7 0.0
19/12:00pm 28.7 26.4 13.0 38 9.3 SSE 17 26 9 14 1014.2 1014.0 0.0
19/11:30am 28.6 25.9 12.9 38 9.3 SSE 19 26 10 14 1014.4 1014.2 0.0
19/11:00am 28.8 26.4 11.4 34 10.0 SE 15 20 8 11 1014.4 1014.2 0.0
19/10:30am 26.8 23.8 10.5 36 9.2 SE 17 22 9 12 1014.9 1014.7 0.0
19/10:00am 26.3 24.1 10.9 38 8.7 ESE 13 24 7 13 1015.1 1014.9 0.0
19/09:30am 25.3 23.1 10.7 40 8.2 ESE 13 20 7 11 1015.5 1015.3 0.0
19/09:00am 22.7 20.1 9.5 43 7.1 E 13 22 7 12 1015.9 1015.7 0.0
19/08:30am 21.2 18.6 9.4 47 6.3 E 13 19 7 10 1016.4 1016.2 0.0
19/08:00am 19.5 16.3 8.5 49 5.7 ESE 15 22 8 12 1016.6 1016.4 0.0
19/07:30am 18.0 14.8 8.3 53 5.0 ESE 15 24 8 13 1016.7 1016.5 0.0
19/07:00am 16.5 13.1 9.0 61 3.9 SE 17 24 9 13 1016.7 1016.5 0.0
19/06:30am 14.8 11.9 9.8 72 2.6 ESE 15 24 8 13 1016.9 1016.7 0.0
19/06:00am 13.5 12.0 10.7 83 1.5 ESE 9 15 5 8 1016.9 1016.7 0.0
19/05:30am 12.7 10.8 10.6 87 1.1 SE 11 19 6 10 1016.7 1016.5 0.0
19/05:00am 12.7 10.7 10.2 85 1.3 SE 11 17 6 9 1016.5 1016.3 0.0
19/04:30am 13.2 10.9 10.4 83 1.5 SE 13 19 7 10 1016.4 1016.2 0.0
19/04:00am 13.4 10.8 10.8 84 1.4 SE 15 20 8 11 1016.2 1016.0 0.0
19/03:30am 13.6 10.7 10.9 84 1.4 SE 17 22 9 12 1016.3 1016.1 0.0
19/03:00am 13.6 11.4 10.9 84 1.4 SE 13 19 7 10 1016.3 1016.1 0.0
19/02:30am 13.7 11.2 11.0 84 1.4 SE 15 20 8 11 1016.4 1016.2 0.0
19/02:00am 13.8 11.6 10.8 82 1.6 SE 13 22 7 12 1016.6 1016.4 0.0
19/01:30am 14.2 12.0 10.8 80 1.8 SE 13 24 7 13 1016.7 1016.5 0.0
19/01:00am 14.5 12.0 11.1 80 1.8 SE 15 22 8 12 1017.0 1016.8 0.0
19/12:30am 14.7 11.9 11.3 80 1.8 SE 17 22 9 12 1017.3 1017.1 0.0
19/12:00am 14.8 12.3 12.3 85 1.4 SE 17 24 9 13 1017.5 1017.3 0.0
 
Date/Time
WST
Temp
°C
App
Temp
°C
Dew
Point
Rel
Hum
%
Delta-T
°C
Wind Press
QNH
hPa
Press
MSL
hPa
Rain
since 9 am
mm
Dir
 
Spd
km/h
Gust
km/h
Spd
kts
Gust
kts
18/11:30pm 14.8 12.5 11.9 83 1.6 SE 15 19 8 10 1017.7 1017.5 0.0
18/11:00pm 15.2 12.6 12.1 82 1.7 SE 17 26 9 14 1017.9 1017.7 0.0
18/10:30pm 15.4 12.9 12.3 82 1.7 SE 17 26 9 14 1018.0 1017.8 0.0
18/10:00pm 15.5 12.6 12.4 82 1.7 SE 19 26 10 14 1018.3 1018.1 0.0
18/09:30pm 15.6 13.1 12.4 81 1.8 SE 17 24 9 13 1018.3 1018.1 0.0
18/09:00pm 16.0 13.1 12.4 79 2.0 SSE 19 24 10 13 1018.2 1018.0 0.0
18/08:30pm 16.2 13.7 12.2 77 2.2 SSE 17 28 9 15 1018.0 1017.8 0.0
18/08:00pm 16.5 13.5 12.1 75 2.4 SSE 19 24 10 13 1017.9 1017.7 0.0
18/07:30pm 16.9 13.6 11.6 71 2.9 SSE 20 30 11 16 1017.8 1017.6 0.0
18/07:00pm 17.6 13.5 11.6 68 3.3 SSE 24 33 13 18 1017.7 1017.5 0.0
18/06:30pm 18.4 14.3 11.5 64 3.8 SSE 24 32 13 17 1017.4 1017.2 0.0
18/06:00pm 19.7 16.6 11.7 60 4.4 SSE 19 26 10 14 1017.3 1017.1 0.0
18/05:30pm 20.2 16.5 11.4 57 4.9 SE 22 32 12 17 1017.0 1016.8 0.0
18/05:00pm 20.5 16.3 11.2 55 5.1 SE 24 32 13 17 1016.8 1016.6 0.0
18/04:30pm 21.3 17.2 11.3 53 5.6 SSE 24 32 13 17 1016.8 1016.6 0.0
18/04:00pm 22.9 19.3 11.9 50 6.2 SE 22 35 12 19 1016.9 1016.7 0.0
18/03:30pm 22.9 19.0 12.2 51 6.1 SE 24 33 13 18 1017.1 1016.9 0.0
18/03:00pm 22.6 18.8 11.0 48 6.4 SSE 22 32 12 17 1017.3 1017.1 0.0
18/02:30pm 23.8 19.8 11.8 47 6.8 SE 24 32 13 17 1017.3 1017.1 0.0
18/02:00pm 23.7 20.3 11.4 46 6.9 SE 20 30 11 16 1017.2 1017.0 0.0
18/01:30pm 23.9 20.2 11.6 46 7.0 SSE 22 32 12 17 1017.3 1017.1 0.0
18/01:00pm 24.3 20.5 11.3 44 7.3 SSE 22 30 12 16 1017.3 1017.1 0.0
18/12:30pm 25.0 22.9 11.2 42 7.8 ESE 13 26 7 14 1017.5 1017.3 0.0
18/12:00pm 23.8 21.9 9.0 39 8.0 SSE 9 17 5 9 1017.8 1017.6 0.0
18/11:30am 23.6 21.6 8.8 39 8.0 SE 9 19 5 10 1018.0 1017.8 0.0
18/11:00am 22.1 20.1 8.6 42 7.2 SE 9 19 5 10 1018.4 1018.2 0.0
18/10:30am 21.6 20.2 8.8 44 6.8 SE 6 17 3 9 1018.5 1018.3 0.0
18/10:00am 21.3 20.0 9.2 46 6.5 SSW 6 19 3 10 1018.9 1018.8 0.0
18/09:30am 19.6 16.9 8.9 50 5.6 ENE 13 19 7 10 1019.3 1019.2 0.0
18/09:00am 18.5 16.1 8.7 53 5.1 SE 11 20 6 11 1019.3 1019.2 0.0
18/08:30am 18.6 16.2 10.2 58 4.5 SE 13 20 7 11 1019.2 1019.1 0.0
18/08:00am 17.8 15.5 10.4 62 4.0 ESE 13 22 7 12 1019.1 1019.0 0.0
18/07:30am 16.7 14.7 10.1 65 3.5 E 11 17 6 9 1019.0 1018.9 0.0
18/07:00am 14.8 14.4 11.2 79 1.9 E 4 7 2 4 1018.7 1018.6 0.0
18/06:30am 12.5 13.3 12.5 100 0.0 CALM 0 0 0 0 1018.4 1018.2 0.0
18/06:00am 8.8 8.5 8.7 99 0.0 CALM 0 0 0 0 1018.0 1017.8 0.0
18/05:30am 7.2 6.5 7.1 99 0.0 CALM 0 0 0 0 1017.7 1017.5 0.0
18/05:00am 7.4 6.8 7.3 99 0.0 CALM 0 0 0 0 1017.6 1017.4 0.0
18/04:30am 7.1 6.4 7.0 99 0.0 CALM 0 0 0 0 1017.3 1017.1 0.0
18/04:00am 8.3 7.9 8.2 99 0.0 CALM 0 0 0 0 1017.1 1016.9 0.0
18/03:30am 7.6 7.0 7.5 99 0.0 CALM 0 0 0 0 1016.8 1016.6 0.0
18/03:00am 8.5 8.1 8.4 99 0.0 CALM 0 0 0 0 1016.7 1016.5 0.0
18/02:30am 8.4 8.0 8.1 98 0.1 CALM 0 0 0 0 1016.7 1016.5 0.0
18/02:00am 8.8 8.3 8.0 95 0.4 CALM 0 0 0 0 1016.7 1016.5 0.0
18/01:30am 9.0 8.5 7.8 92 0.6 CALM 0 0 0 0 1016.9 1016.7 0.0
18/01:00am 9.7 8.5 8.0 89 0.8 S 4 9 2 5 1017.0 1016.8 0.0
18/12:30am 10.4 10.0 8.3 87 1.0 CALM 0 0 0 0 1017.3 1017.1 0.0
18/12:00am 10.9 10.5 8.1 83 1.4 CALM 0 6 0 3 1017.5 1017.3 0.0
 
Date/Time
WST
Temp
°C
App
Temp
°C
Dew
Point
Rel
Hum
%
Delta-T
°C
Wind Press
QNH
hPa
Press
MSL
hPa
Rain
since 9 am
mm
Dir
 
Spd
km/h
Gust
km/h
Spd
kts
Gust
kts
17/11:30pm 11.7 10.7 8.7 82 1.5 S 4 7 2 4 1017.6 1017.4 0.0
17/11:00pm 11.0 9.8 7.9 81 1.5 SSW 4 7 2 4 1017.7 1017.5 0.0
17/10:30pm 12.2 11.3 7.7 74 2.2 SSW 2 7 1 4 1017.7 1017.5 0.0
17/10:00pm 13.3 12.9 8.4 72 2.4 CALM 0 0 0 0 1017.5 1017.3 0.0
17/09:30pm 13.0 12.5 7.9 71 2.5 CALM 0 0 0 0 1017.6 1017.4 0.0
17/09:00pm 13.8 11.9 7.6 66 3.1 SSE 7 9 4 5 1017.2 1017.0 0.0
17/08:30pm 14.6 12.0 7.9 64 3.3 S 11 13 6 7 1016.9 1016.7 0.0
17/08:00pm 15.2 13.0 8.0 62 3.6 S 9 13 5 7 1016.7 1016.5 0.0
17/07:30pm 15.9 12.7 8.4 61 3.8 S 15 19 8 10 1016.5 1016.3 0.0
17/07:00pm 16.7 13.1 8.4 58 4.2 SSE 17 24 9 13 1016.3 1016.1 0.0
17/06:30pm 16.9 13.3 8.3 57 4.4 SSE 17 22 9 12 1016.0 1015.8 0.0
17/06:00pm 17.4 13.3 7.7 53 4.9 SSE 19 24 10 13 1015.5 1015.3 0.0
17/05:30pm 18.9 14.7 8.3 50 5.5 SSE 20 28 11 15 1015.0 1014.8 0.0
17/05:00pm 19.9 15.8 8.6 48 5.9 SSE 20 30 11 16 1014.7 1014.5 0.0
17/04:30pm 19.7 15.7 9.0 50 5.6 SSE 20 28 11 15 1014.7 1014.5 0.0
17/04:00pm 19.2 14.7 8.5 50 5.6 SSW 22 33 12 18 1014.8 1014.6 0.0
17/03:30pm 19.1 14.3 8.7 51 5.4 SSW 24 33 13 18 1014.9 1014.7 0.0
17/03:00pm 19.5 15.1 8.8 50 5.6 SSW 22 35 12 19 1014.7 1014.5 0.0
17/02:30pm 19.8 15.5 9.4 51 5.5 SSW 22 32 12 17 1014.7 1014.5 0.0
17/02:00pm 19.9 15.9 9.2 50 5.7 SSW 20 30 11 16 1014.7 1014.5 0.0
17/01:30pm 19.8 15.4 8.8 49 5.8 SSW 22 33 12 18 1014.6 1014.4 0.0
17/01:00pm 20.4 16.9 8.7 47 6.2 S 17 26 9 14 1014.7 1014.5 0.0
17/12:30pm 19.8 17.6 9.4 51 5.5 S 11 20 6 11 1014.9 1014.7 0.0
17/12:00pm 18.7 15.8 9.5 55 4.9 S 15 20 8 11 1015.1 1014.9 0.0
17/11:30am 18.3 15.6 9.1 55 4.8 S 13 20 7 11 1015.2 1015.0 0.0
17/11:00am 18.0 16.5 9.1 56 4.7 S 7 15 4 8 1015.3 1015.1 0.0
17/10:30am 16.6 13.6 7.8 56 4.4 S 13 19 7 10 1015.4 1015.2 0.0
17/10:00am 17.1 14.1 7.7 54 4.8 SSE 13 19 7 10 1015.2 1015.0 0.0
17/09:30am 17.2 15.2 7.0 51 5.1 S 7 13 4 7 1015.0 1014.8 0.0
17/09:00am 16.7 13.4 6.5 51 5.0 SSW 13 19 7 10 1014.9 1014.7 0.0
17/08:30am 16.6 13.2 6.1 50 5.1 S 13 20 7 11 1014.9 1014.7 0.0
17/08:00am 16.8 13.1 6.3 50 5.2 SSW 15 22 8 12 1014.8 1014.6 0.0
17/07:30am 16.1 12.4 6.5 53 4.7 SSW 15 24 8 13 1014.7 1014.5 0.0
17/07:00am 15.5 13.4 6.5 55 4.4 SSW 7 11 4 6 1014.4 1014.2 0.0
17/06:30am 15.2 13.1 6.5 56 4.2 SW 7 9 4 5 1014.0 1013.8 0.0
17/06:00am 14.8 12.4 7.1 60 3.8 S 9 13 5 7 1013.6 1013.4 0.0
17/05:30am 14.5 12.5 7.1 61 3.6 S 7 11 4 6 1013.4 1013.2 0.0
17/05:00am 14.5 12.1 7.1 61 3.6 S 9 11 5 6 1013.2 1013.0 0.0
17/04:30am 14.5 12.2 7.5 63 3.5 S 9 15 5 8 1012.9 1012.7 0.0
17/04:00am 14.1 12.4 8.3 68 2.9 S 7 9 4 5 1012.5 1012.3 0.0
17/03:30am 13.4 12.0 8.7 73 2.4 SSW 6 9 3 5 1012.4 1012.2 0.0
17/03:00am 11.9 10.5 8.7 81 1.6 S 6 9 3 5 1012.3 1012.1 0.0
17/02:30am 11.3 10.8 9.2 87 1.1 W 2 7 1 4 1012.5 1012.3 0.0
17/02:00am 10.7 10.7 9.8 94 0.5 CALM 0 0 0 0 1012.6 1012.4 0.0
17/01:30am 9.5 9.3 9.0 97 0.2 CALM 0 0 0 0 1012.7 1012.5 0.0
17/01:00am 8.5 8.1 8.1 97 0.2 CALM 0 0 0 0 1012.7 1012.5 0.0
17/12:30am 8.3 7.7 7.2 93 0.5 CALM 0 0 0 0 1012.7 1012.5 0.0
17/12:00am 9.0 8.5 7.8 92 0.6 CALM 0 0 0 0 1012.8 1012.6 0.0

Other Formats:

Comma delimited format used in spreadsheet applications
http://www.bom.gov.au/fwo/IDW60801/IDW60801.95641.axf

JavaScript Object Notation format (JSON) in row-major order
http://www.bom.gov.au/fwo/IDW60801/IDW60801.95641.json